Elliot Chaparral Reserve, California Weather observations

Data are for 10 minute period ending at time listed.
 Day   Time   Solar   Ave.   Ave.  Ave.  Vector  Max.   Baro.   Total    
  of    of     Rad.   Air    Rel.  Wind   Wind   Wind  Press.  Precip.   
Year   Day            Temp.  Hum.  Speed  Dir.   Gust                    
2014   (PST)  Kw/m2    F      %     mph   deg.    mph    mb.     in.     
-------------------------------------------------------------------------
 327    0:20   0.00   55.7    93    8.3   102     9.6   988.1    0.00 
 327    0:30   0.00   55.4    93    8.0   109     9.3   987.8    0.00 
 327    0:40   0.00   54.9    93    8.1   104     9.9   987.7    0.00 
 327    0:50   0.00   54.2    93    8.4   109    10.4   987.7    0.00 
 327    1:00   0.00   53.8    93    9.8   104    11.4   987.7    0.00 
 327    1:10   0.00   53.7    93    9.5   103    11.2   987.7    0.00 
 327    1:20   0.00   53.6    93    8.4    99    10.5   987.6    0.00 
 327    1:30   0.00   53.2    93    8.4    94    10.4   987.5    0.00 
 327    1:40   0.00   53.3    93    9.5    90    10.7   987.4    0.00 
 327    1:50   0.00   53.1    93    8.3    80    10.0   987.5    0.00 
 327    2:00   0.00   53.5    94    5.8    65     6.9   987.6    0.00 
 327    2:10   0.00   54.9    94    5.3    67     6.4   987.6    0.00 
 327    2:20   0.00   55.3    93    4.9    64     6.0   987.7    0.00 
 327    2:30   0.00   55.7    93    4.4    74     5.6   987.6    0.00 
 327    2:40   0.00   55.9    92    3.4    76     4.2   987.6    0.00 
 327    2:50   0.00   56.1    91    2.2    69     3.0   987.7    0.00 
 327    3:00   0.00   56.4    90    2.8    60     3.7   987.7    0.00 
 327    3:10   0.00   56.7    90    1.2    57     2.1   987.7    0.00 
 327    3:20   0.00   56.1    89    4.2    50     6.4   987.7    0.00 
 327    3:30   0.00   54.8    89    4.7    52     6.4   987.6    0.00 
 327    3:40   0.00   54.8    89    4.5    53     5.3   987.4    0.00 
 327    3:50   0.00   54.6    89    5.4    38     7.4   987.4    0.00 
 327    4:00   0.00   54.9    88    6.6    33     8.2   987.4    0.00 
 327    4:10   0.00   55.1    87    4.8    34     6.6   987.5    0.00 
 327    4:20   0.00   54.5    87    5.6    37     6.6   987.6    0.00 
 327    4:30   0.00   54.2    88    4.0    44     5.8   987.6    0.00 
 327    4:40   0.00   54.5    87    4.1    66     5.2   987.5    0.00 
 327    4:50   0.00   53.5    88    5.8    81     7.4   987.5    0.00 
 327    5:00   0.00   53.2    89    5.0    80     6.5   987.5    0.00 
 327    5:10   0.00   53.0    89    4.7    76     6.5   987.7    0.00 
 327    5:20   0.00   53.1    88    4.4    72     5.6   987.9    0.00 
 327    5:30   0.00   53.0    89    6.1    60     7.2   987.9    0.00 
 327    5:40   0.00   53.1    89    4.9    63     5.6   987.9    0.00 
 327    5:50   0.00   53.3    88    5.7    57     6.9   988.1    0.00 
 327    6:00   0.00   53.3    88    6.0    66     6.9   988.2    0.00 
 327    6:10   0.00   53.3    88    5.9    60     6.6   988.3    0.00 
 327    6:20   0.00   53.4    86    5.8    46     6.8   988.4    0.00 
 327    6:30   0.00   54.2    83    4.5    30     5.3   988.3    0.00 
 327    6:40   0.01   55.0    81    5.5     4     7.2   988.5    0.00 
 327    6:50   0.02   55.3    82    6.7    12     7.8   988.6    0.00 
 327    7:00   0.06   56.1    80    7.4    39     8.8   988.8    0.00 
 327    7:10   0.09   56.1    79    7.2    66     9.9   989.0    0.00 
 327    7:20   0.11   54.8    82    6.1    78    10.0   989.1    0.00 
 327    7:30   0.11   55.4    81    4.4    76     5.4   989.2    0.00 
 327    7:40   0.12   55.2    82    6.6    77     9.0   989.3    0.00 
 327    7:50   0.19   56.5    80    4.5    72     5.6   989.7    0.00 
 327    8:00   0.20   57.2    78    5.8    77     7.4   990.0    0.00 
 327    8:10   0.28   58.4    76    4.9    86     7.0   990.1    0.00 
 327    8:20   0.28   59.5    75    4.3   106     6.4   990.2    0.00 
 327    8:30   0.22   59.0    74    6.2   105     8.6   990.1    0.00 
 327    8:40   0.29   58.9    74    6.9    92     8.8   990.2    0.01 
 327    8:50   0.31   59.7    70    8.1    94    10.1   990.2    0.00 
 327    9:00   0.38   60.7    68    3.9    80     7.8   990.6    0.00 
 327    9:10   0.41   62.3    65    2.2    59     4.7   990.8    0.00 
 327    9:20   0.29   62.9    61    4.0    98     6.2   990.6    0.00 
 327    9:30   0.43   64.3    59    3.2   154     5.7   990.8    0.00 
 327    9:40   0.45   65.2    56    2.5   328     5.6   990.9    0.00 
 327    9:50   0.46   65.2    54    3.6   324     5.6   990.8    0.00 
 327   10:00   0.43   65.3    54    4.2   323     8.0   991.0    0.00 
 327   10:10   0.52   65.2    56    4.2   331     6.6   990.7    0.00 
 327   10:20   0.46   65.9    57    5.2   312     7.8   990.8    0.00 
 327   10:30   0.46   66.1    57    4.0   319     6.4   990.6    0.00 
 327   10:40   0.47   66.2    56    4.0   334     8.0   990.4    0.00 
 327   10:50   0.46   66.6    55    5.2   319     9.1   990.2    0.00 
 327   11:00   0.47   66.9    54    4.4   316     7.3   990.0    0.00 
 327   11:10   0.48   67.3    54    5.3   310     7.3   989.9    0.00 
 327   11:20   0.56   67.2    53    4.9   306     7.5   989.9    0.00 
 327   11:30   0.57   68.2    52    6.3   306     9.3   989.8    0.00 
 327   11:40   0.56   69.1    50    6.9   315     9.9   989.6    0.00 
 327   11:50   0.54   68.8    49    7.4   304    10.3   989.1    0.00 
 327   12:00   0.55   69.6    48    5.2   314     8.6   989.0    0.00 
 327   12:10   0.55   70.0    48    7.3   299    11.8   989.0    0.00 
 327   12:20   0.53   70.5    47    6.8   318    10.4   988.8    0.00 
 327   12:30   0.45   70.4    46    8.4   324    12.1   988.7    0.00 
 327   12:40   0.51   70.7    44    9.4   315    12.9   988.7    0.00 
 327   12:50   0.49   70.9    40    8.9   323    13.8   988.6    0.00 
 327   13:00   0.53   71.8    38    9.0   314    13.1   988.5    0.00 
 327   13:10   0.51   72.3    38    8.9   316    12.9   988.3    0.00 
 327   13:20   0.53   72.1    42   10.6   303    15.0   988.0    0.00 
 327   13:30   0.51   71.9    43   11.1   317    15.7   988.0    0.00 
 327   13:40   0.49   71.5    44   13.4   310    17.1   988.1    0.00 
 327   13:50   0.47   71.6    42   12.4   313    16.3   988.2    0.00 
 327   14:00   0.44   72.8    40   11.7   318    15.8   988.3    0.00 
 327   14:10   0.42   72.3    42   13.4   320    18.3   988.4    0.00 
 327   14:20   0.40   72.3    43   11.3   318    15.3   988.3    0.00 
 327   14:30   0.37   73.0    43    7.6   322    12.1   988.2    0.00 
 327   14:40   0.34   72.5    45    9.4   316    12.4   988.1    0.00 
 327   14:50   0.31   72.1    47    9.5   312    13.1   988.2    0.00 
 327   15:00   0.24   71.8    49    9.9   313    14.5   988.3    0.00 
 327   15:10   0.21   71.5    51    7.5   320    11.3   988.4    0.00 
 327   15:20   0.12   70.6    51    7.5   327    10.6   988.4    0.00 
 327   15:30   0.10   70.3    51    5.4   334     7.5   988.5    0.00 
 327   15:40   0.10   69.2    54    5.7   336     9.4   988.8    0.00 
 327   15:50   0.18   68.8    59    9.9   319    15.1   989.0    0.00 
 327   16:00   0.13   67.4    65   13.1   317    16.2   989.0    0.00 
 327   16:10   0.08   65.7    71   11.1   319    16.4   989.3    0.00 
 327   16:20   0.04   64.7    72    8.2   339    11.1   989.5    0.00 
 327   16:30   0.02   63.9    72    7.3   330    11.0   989.5    0.00 
 327   16:40   0.01   63.5    71    8.7   334    12.1   989.6    0.00 
 327   16:50   0.00   63.4    67    8.7   337    12.9   989.7    0.00 
 327   17:00   0.00   63.1    65    5.7   355     8.8   989.6    0.00 
 327   17:10   0.00   63.2    60    7.5     9     9.4   989.3    0.00 
 327   17:20   0.00   63.4    57    4.3    25     7.8   989.4    0.00 
 327   17:30   0.00   63.7    54    1.9     3     3.8   989.4    0.00 
 327   17:40   0.00   64.2    47    3.9    28     6.6   989.7    0.00 
 327   17:50   0.00   64.9    23    8.0    43    10.7   989.8    0.00 
 327   18:00   0.00   66.2    16   10.6    52    13.0   989.9    0.00 
 327   18:10   0.00   66.5    14   10.0    52    11.7   990.0    0.00 
 327   18:20   0.00   66.3    14    8.7    56    11.6   990.0    0.00 
 327   18:30   0.00   65.6    14    8.1    51     9.7   990.1    0.00 
 327   18:40   0.00   63.8    17    8.6    68     9.9   990.3    0.00 
 327   18:50   0.00   64.0    16    8.8    66    10.7   990.4    0.00 
 327   19:00   0.00   63.4    16   10.2    74    12.1   990.4    0.00 
 327   19:10   0.00   62.9    18   12.0    84    14.8   990.4    0.00 
 327   19:20   0.00   62.3    20   10.8    82    12.8   990.5    0.00 
 327   19:30   0.00   62.5    21   10.8    84    12.2   990.6    0.00 
 327   19:40   0.00   62.4    24   11.4    89    13.2   990.5    0.00 
 327   19:50   0.00   62.7    24   10.4    93    12.3   990.6    0.00 
 327   20:00   0.00   62.2    24   11.3    95    13.1   990.4    0.00 
 327   20:10   0.00   62.3    27    9.8    99    11.5   990.5    0.00 
 327   20:20   0.00   61.3    31    8.6    98    10.6   990.7    0.00 
 327   20:30   0.00   60.9    36    7.8   102     9.3   990.8    0.00 
 327   20:40   0.00   61.1    37    6.3    90     8.0   990.9    0.00 
 327   20:50   0.00   62.3    36    4.7    72     5.6   991.1    0.00 
 327   21:00   0.00   63.5    31    5.3    75     6.4   991.2    0.00 
 327   21:10   0.00   63.6    28    4.8    78     6.1   991.3    0.00 
 327   21:20   0.00   64.4    24    4.3    72     5.3   991.4    0.00 
 327   21:30   0.00   64.8    24    3.3    58     4.3   991.4    0.00 
 327   21:40   0.00   63.8    24    4.7    57     5.8   991.4    0.00 
 327   21:50   0.00   62.7    20    4.8    55     5.8   991.4    0.00 
 327   22:00   0.00   62.7    16    5.0    64     7.3   991.5    0.00 
 327   22:10   0.00   62.2    16    6.9    56     8.3   991.5    0.00 
 327   22:20   0.00   63.8    14    4.7    36     6.1   991.5    0.00 
 327   22:30   0.00   64.5    12    3.7    54     4.8   991.5    0.00 
 327   22:40   0.00   62.6    14    5.7    80     7.3   991.5    0.00 
 327   22:50   0.00   61.3    18    6.3    83     8.0   991.4    0.00 
 327   23:00   0.00   60.5    21    7.1    77     9.0   991.4    0.00 
 327   23:10   0.00   59.8    20    6.1    71     8.2   991.5    0.00 
 327   23:20   0.00   60.5    17    6.1    72     7.9   991.4    0.00 
 327   23:30   0.00   61.4    15    5.8    77     8.0   991.4    0.00 
 327   23:40   0.00   62.3    13    5.6    73     7.5   991.4    0.00 
 327   23:50   0.00   63.2    12    5.2    59     7.2   991.4    0.00 
 328    0:00   0.00   63.5    12    4.4    56     6.0   991.3    0.00 
 328    0:10   0.00   63.3    13    4.5    76     6.8   991.3    0.00 

Return to Elliot Chaparral Reserve graphs page.


Western Regional Climate Center,wrcc@dri.edu